sensor_id;sensor_type;location;lat;lon;timestamp;P1;durP1;ratioP1;P2;durP2;ratioP2
12603;SDS011;6367;52.508;13.284;2023-07-31T00:00:48;3.50;;;1.73;;
12603;SDS011;6367;52.508;13.284;2023-07-31T00:03:13;3.07;;;1.70;;
12603;SDS011;6367;52.508;13.284;2023-07-31T00:05:39;2.23;;;1.60;;
12603;SDS011;6367;52.508;13.284;2023-07-31T00:08:05;4.03;;;1.47;;
12603;SDS011;6367;52.508;13.284;2023-07-31T00:10:30;2.27;;;1.53;;
12603;SDS011;6367;52.508;13.284;2023-07-31T00:12:56;3.40;;;2.13;;
12603;SDS011;6367;52.508;13.284;2023-07-31T00:15:22;3.23;;;1.97;;
12603;SDS011;6367;52.508;13.284;2023-07-31T00:17:47;2.90;;;1.90;;
12603;SDS011;6367;52.508;13.284;2023-07-31T00:20:13;3.50;;;1.67;;
12603;SDS011;6367;52.508;13.284;2023-07-31T00:22:39;4.27;;;1.87;;
12603;SDS011;6367;52.508;13.284;2023-07-31T00:25:05;2.23;;;1.87;;
12603;SDS011;6367;52.508;13.284;2023-07-31T00:27:31;2.80;;;1.63;;
12603;SDS011;6367;52.508;13.284;2023-07-31T00:29:57;3.20;;;2.10;;
12603;SDS011;6367;52.508;13.284;2023-07-31T00:32:23;2.70;;;1.70;;
12603;SDS011;6367;52.508;13.284;2023-07-31T00:34:48;3.77;;;2.10;;
12603;SDS011;6367;52.508;13.284;2023-07-31T00:37:14;3.23;;;1.97;;
12603;SDS011;6367;52.508;13.284;2023-07-31T00:39:40;1.63;;;1.47;;
12603;SDS011;6367;52.508;13.284;2023-07-31T00:42:06;2.37;;;2.17;;
12603;SDS011;6367;52.508;13.284;2023-07-31T00:44:32;2.07;;;1.87;;
12603;SDS011;6367;52.508;13.284;2023-07-31T00:46:58;2.60;;;2.40;;
12603;SDS011;6367;52.508;13.284;2023-07-31T00:49:24;3.20;;;2.43;;
12603;SDS011;6367;52.508;13.284;2023-07-31T00:51:51;6.77;;;2.20;;
12603;SDS011;6367;52.508;13.284;2023-07-31T00:54:17;4.23;;;2.17;;
12603;SDS011;6367;52.508;13.284;2023-07-31T00:56:44;4.97;;;2.27;;
12603;SDS011;6367;52.508;13.284;2023-07-31T00:59:11;2.20;;;2.10;;
12603;SDS011;6367;52.508;13.284;2023-07-31T01:01:36;5.23;;;2.37;;
12603;SDS011;6367;52.508;13.284;2023-07-31T01:04:02;4.80;;;2.13;;
12603;SDS011;6367;52.508;13.284;2023-07-31T01:09:10;3.60;;;2.00;;
12603;SDS011;6367;52.508;13.284;2023-07-31T01:11:43;6.23;;;2.47;;
12603;SDS011;6367;52.508;13.284;2023-07-31T01:14:17;4.13;;;2.83;;
12603;SDS011;6367;52.508;13.284;2023-07-31T01:16:43;3.87;;;2.63;;
12603;SDS011;6367;52.508;13.284;2023-07-31T01:19:08;4.00;;;2.40;;
12603;SDS011;6367;52.508;13.284;2023-07-31T01:24:09;4.20;;;2.57;;
12603;SDS011;6367;52.508;13.284;2023-07-31T01:26:45;2.80;;;2.10;;
12603;SDS011;6367;52.508;13.284;2023-07-31T01:29:29;3.77;;;2.50;;
12603;SDS011;6367;52.508;13.284;2023-07-31T01:32:02;4.97;;;2.70;;
12603;SDS011;6367;52.508;13.284;2023-07-31T01:34:29;3.50;;;2.40;;
12603;SDS011;6367;52.508;13.284;2023-07-31T01:36:55;2.77;;;2.53;;
12603;SDS011;6367;52.508;13.284;2023-07-31T01:39:23;3.50;;;2.50;;
12603;SDS011;6367;52.508;13.284;2023-07-31T01:41:49;4.20;;;2.50;;
12603;SDS011;6367;52.508;13.284;2023-07-31T01:44:14;5.43;;;2.20;;
12603;SDS011;6367;52.508;13.284;2023-07-31T01:46:40;4.70;;;2.60;;
12603;SDS011;6367;52.508;13.284;2023-07-31T01:49:06;2.63;;;2.20;;
12603;SDS011;6367;52.508;13.284;2023-07-31T01:51:32;3.80;;;2.40;;
12603;SDS011;6367;52.508;13.284;2023-07-31T01:54:01;2.93;;;2.63;;
12603;SDS011;6367;52.508;13.284;2023-07-31T01:56:27;2.80;;;2.50;;
12603;SDS011;6367;52.508;13.284;2023-07-31T01:58:53;2.90;;;2.40;;
12603;SDS011;6367;52.508;13.284;2023-07-31T02:01:18;3.13;;;2.50;;
12603;SDS011;6367;52.508;13.284;2023-07-31T02:03:44;3.50;;;2.10;;
12603;SDS011;6367;52.508;13.284;2023-07-31T02:06:09;4.33;;;2.83;;
12603;SDS011;6367;52.508;13.284;2023-07-31T02:08:35;3.23;;;2.77;;
12603;SDS011;6367;52.508;13.284;2023-07-31T02:11:01;4.33;;;2.70;;
12603;SDS011;6367;52.508;13.284;2023-07-31T02:13:27;3.00;;;2.60;;
12603;SDS011;6367;52.508;13.284;2023-07-31T02:15:52;3.17;;;2.20;;
12603;SDS011;6367;52.508;13.284;2023-07-31T02:18:18;2.83;;;2.60;;
12603;SDS011;6367;52.508;13.284;2023-07-31T02:20:48;2.90;;;2.10;;
12603;SDS011;6367;52.508;13.284;2023-07-31T02:23:14;2.33;;;2.13;;
12603;SDS011;6367;52.508;13.284;2023-07-31T02:25:40;4.40;;;2.73;;
12603;SDS011;6367;52.508;13.284;2023-07-31T02:28:06;5.07;;;2.70;;
12603;SDS011;6367;52.508;13.284;2023-07-31T02:30:31;4.07;;;2.40;;
12603;SDS011;6367;52.508;13.284;2023-07-31T02:32:57;2.67;;;2.47;;
12603;SDS011;6367;52.508;13.284;2023-07-31T02:35:23;2.60;;;2.40;;
12603;SDS011;6367;52.508;13.284;2023-07-31T02:37:48;3.80;;;2.70;;
12603;SDS011;6367;52.508;13.284;2023-07-31T02:40:14;3.87;;;3.10;;
12603;SDS011;6367;52.508;13.284;2023-07-31T02:42:39;3.70;;;2.80;;
12603;SDS011;6367;52.508;13.284;2023-07-31T02:45:05;3.67;;;2.80;;
12603;SDS011;6367;52.508;13.284;2023-07-31T02:47:31;3.60;;;2.70;;
12603;SDS011;6367;52.508;13.284;2023-07-31T02:49:57;4.20;;;2.73;;
12603;SDS011;6367;52.508;13.284;2023-07-31T02:52:24;2.90;;;2.53;;
12603;SDS011;6367;52.508;13.284;2023-07-31T02:54:50;3.43;;;3.17;;
12603;SDS011;6367;52.508;13.284;2023-07-31T02:57:15;6.03;;;2.97;;
12603;SDS011;6367;52.508;13.284;2023-07-31T02:59:41;3.63;;;3.20;;
12603;SDS011;6367;52.508;13.284;2023-07-31T03:02:07;3.73;;;2.70;;
12603;SDS011;6367;52.508;13.284;2023-07-31T03:04:32;4.10;;;3.43;;
12603;SDS011;6367;52.508;13.284;2023-07-31T03:06:58;3.40;;;2.83;;
12603;SDS011;6367;52.508;13.284;2023-07-31T03:09:23;3.03;;;2.67;;
12603;SDS011;6367;52.508;13.284;2023-07-31T03:11:49;3.83;;;3.17;;
12603;SDS011;6367;52.508;13.284;2023-07-31T03:14:15;3.77;;;3.17;;
12603;SDS011;6367;52.508;13.284;2023-07-31T03:16:40;4.20;;;3.23;;
12603;SDS011;6367;52.508;13.284;2023-07-31T03:19:06;5.93;;;3.10;;
12603;SDS011;6367;52.508;13.284;2023-07-31T03:21:31;3.77;;;3.47;;
12603;SDS011;6367;52.508;13.284;2023-07-31T03:23:57;5.43;;;3.17;;
12603;SDS011;6367;52.508;13.284;2023-07-31T03:26:23;4.60;;;3.40;;
12603;SDS011;6367;52.508;13.284;2023-07-31T03:28:48;3.90;;;3.60;;
12603;SDS011;6367;52.508;13.284;2023-07-31T03:31:14;3.33;;;2.93;;
12603;SDS011;6367;52.508;13.284;2023-07-31T03:33:40;5.10;;;3.40;;
12603;SDS011;6367;52.508;13.284;2023-07-31T03:36:06;4.30;;;3.40;;
12603;SDS011;6367;52.508;13.284;2023-07-31T03:38:33;4.97;;;4.00;;
12603;SDS011;6367;52.508;13.284;2023-07-31T03:40:59;3.40;;;3.10;;
12603;SDS011;6367;52.508;13.284;2023-07-31T03:43:25;4.27;;;3.87;;
12603;SDS011;6367;52.508;13.284;2023-07-31T03:45:50;4.27;;;3.20;;
12603;SDS011;6367;52.508;13.284;2023-07-31T03:48:16;4.10;;;2.90;;
12603;SDS011;6367;52.508;13.284;2023-07-31T03:50:42;3.70;;;3.37;;
12603;SDS011;6367;52.508;13.284;2023-07-31T03:53:08;4.70;;;4.30;;
12603;SDS011;6367;52.508;13.284;2023-07-31T03:55:33;6.43;;;3.50;;
12603;SDS011;6367;52.508;13.284;2023-07-31T03:57:59;3.83;;;3.50;;
12603;SDS011;6367;52.508;13.284;2023-07-31T04:00:27;4.37;;;3.77;;
12603;SDS011;6367;52.508;13.284;2023-07-31T04:02:53;6.80;;;4.20;;
12603;SDS011;6367;52.508;13.284;2023-07-31T04:05:18;3.37;;;3.03;;
12603;SDS011;6367;52.508;13.284;2023-07-31T04:07:44;4.03;;;3.47;;
12603;SDS011;6367;52.508;13.284;2023-07-31T04:10:10;4.77;;;3.63;;
12603;SDS011;6367;52.508;13.284;2023-07-31T04:12:36;5.07;;;3.73;;
12603;SDS011;6367;52.508;13.284;2023-07-31T04:15:01;5.23;;;4.70;;
12603;SDS011;6367;52.508;13.284;2023-07-31T04:17:27;4.10;;;3.70;;
12603;SDS011;6367;52.508;13.284;2023-07-31T04:19:52;5.03;;;3.67;;
12603;SDS011;6367;52.508;13.284;2023-07-31T04:22:18;4.10;;;3.80;;
12603;SDS011;6367;52.508;13.284;2023-07-31T04:24:44;5.30;;;3.83;;
12603;SDS011;6367;52.508;13.284;2023-07-31T04:27:09;5.50;;;4.17;;
12603;SDS011;6367;52.508;13.284;2023-07-31T04:29:35;4.27;;;3.93;;
12603;SDS011;6367;52.508;13.284;2023-07-31T04:32:01;4.40;;;3.60;;
12603;SDS011;6367;52.508;13.284;2023-07-31T04:34:26;4.10;;;3.70;;
12603;SDS011;6367;52.508;13.284;2023-07-31T04:36:52;5.63;;;3.57;;
12603;SDS011;6367;52.508;13.284;2023-07-31T04:39:18;8.10;;;4.83;;
12603;SDS011;6367;52.508;13.284;2023-07-31T04:41:43;4.23;;;3.93;;
12603;SDS011;6367;52.508;13.284;2023-07-31T04:44:09;5.10;;;4.60;;
12603;SDS011;6367;52.508;13.284;2023-07-31T04:46:36;4.00;;;3.70;;
12603;SDS011;6367;52.508;13.284;2023-07-31T04:49:02;4.23;;;3.90;;
12603;SDS011;6367;52.508;13.284;2023-07-31T04:51:28;4.57;;;3.43;;
12603;SDS011;6367;52.508;13.284;2023-07-31T04:53:53;5.70;;;3.80;;
12603;SDS011;6367;52.508;13.284;2023-07-31T04:56:19;5.37;;;3.97;;
12603;SDS011;6367;52.508;13.284;2023-07-31T04:58:45;4.80;;;3.80;;
12603;SDS011;6367;52.508;13.284;2023-07-31T05:01:10;4.60;;;3.83;;
12603;SDS011;6367;52.508;13.284;2023-07-31T05:03:36;7.03;;;4.57;;
12603;SDS011;6367;52.508;13.284;2023-07-31T05:06:02;5.90;;;4.23;;
12603;SDS011;6367;52.508;13.284;2023-07-31T05:08:27;4.00;;;3.70;;
12603;SDS011;6367;52.508;13.284;2023-07-31T05:10:53;5.27;;;4.77;;
12603;SDS011;6367;52.508;13.284;2023-07-31T05:13:18;3.87;;;3.50;;
12603;SDS011;6367;52.508;13.284;2023-07-31T05:15:44;4.33;;;3.93;;
12603;SDS011;6367;52.508;13.284;2023-07-31T05:18:10;4.47;;;4.07;;
12603;SDS011;6367;52.508;13.284;2023-07-31T05:20:36;5.10;;;4.20;;
12603;SDS011;6367;52.508;13.284;2023-07-31T05:23:02;4.90;;;3.40;;
12603;SDS011;6367;52.508;13.284;2023-07-31T05:25:27;5.60;;;4.67;;
12603;SDS011;6367;52.508;13.284;2023-07-31T05:27:53;4.30;;;3.90;;
12603;SDS011;6367;52.508;13.284;2023-07-31T05:30:18;7.27;;;4.53;;
12603;SDS011;6367;52.508;13.284;2023-07-31T05:32:44;6.67;;;4.10;;
12603;SDS011;6367;52.508;13.284;2023-07-31T05:35:10;4.83;;;3.93;;
12603;SDS011;6367;52.508;13.284;2023-07-31T05:37:36;7.50;;;4.20;;
12603;SDS011;6367;52.508;13.284;2023-07-31T05:40:01;3.90;;;3.50;;
12603;SDS011;6367;52.508;13.284;2023-07-31T05:42:27;3.93;;;3.40;;
12603;SDS011;6367;52.508;13.284;2023-07-31T05:44:53;4.73;;;4.20;;
12603;SDS011;6367;52.508;13.284;2023-07-31T05:47:19;3.93;;;3.63;;
12603;SDS011;6367;52.508;13.284;2023-07-31T05:49:45;3.70;;;3.20;;
12603;SDS011;6367;52.508;13.284;2023-07-31T05:52:10;5.00;;;3.40;;
12603;SDS011;6367;52.508;13.284;2023-07-31T05:54:36;4.30;;;3.30;;
12603;SDS011;6367;52.508;13.284;2023-07-31T05:57:02;4.10;;;3.40;;
12603;SDS011;6367;52.508;13.284;2023-07-31T05:59:27;4.73;;;3.60;;
12603;SDS011;6367;52.508;13.284;2023-07-31T06:01:53;4.50;;;3.60;;
12603;SDS011;6367;52.508;13.284;2023-07-31T06:04:19;3.87;;;3.40;;
12603;SDS011;6367;52.508;13.284;2023-07-31T06:06:44;4.00;;;3.13;;
12603;SDS011;6367;52.508;13.284;2023-07-31T06:09:10;5.27;;;4.00;;
12603;SDS011;6367;52.508;13.284;2023-07-31T06:11:36;4.37;;;3.60;;
12603;SDS011;6367;52.508;13.284;2023-07-31T06:14:02;4.97;;;3.43;;
12603;SDS011;6367;52.508;13.284;2023-07-31T06:16:28;4.80;;;3.67;;
12603;SDS011;6367;52.508;13.284;2023-07-31T06:18:53;4.33;;;3.60;;
12603;SDS011;6367;52.508;13.284;2023-07-31T06:21:19;3.90;;;3.20;;
12603;SDS011;6367;52.508;13.284;2023-07-31T06:23:45;6.70;;;3.83;;
12603;SDS011;6367;52.508;13.284;2023-07-31T06:26:10;4.43;;;3.37;;
12603;SDS011;6367;52.508;13.284;2023-07-31T06:28:36;3.57;;;3.10;;
12603;SDS011;6367;52.508;13.284;2023-07-31T06:31:01;9.07;;;4.30;;
12603;SDS011;6367;52.508;13.284;2023-07-31T06:33:27;5.87;;;3.83;;
12603;SDS011;6367;52.508;13.284;2023-07-31T06:35:53;3.67;;;3.20;;
12603;SDS011;6367;52.508;13.284;2023-07-31T06:38:23;3.60;;;3.07;;
12603;SDS011;6367;52.508;13.284;2023-07-31T06:40:50;4.27;;;3.10;;
12603;SDS011;6367;52.508;13.284;2023-07-31T06:43:15;6.33;;;3.70;;
12603;SDS011;6367;52.508;13.284;2023-07-31T06:45:42;5.47;;;3.20;;
12603;SDS011;6367;52.508;13.284;2023-07-31T06:48:08;3.90;;;3.27;;
12603;SDS011;6367;52.508;13.284;2023-07-31T06:50:34;3.40;;;2.53;;
12603;SDS011;6367;52.508;13.284;2023-07-31T06:52:59;2.97;;;2.77;;
12603;SDS011;6367;52.508;13.284;2023-07-31T06:55:25;4.23;;;3.10;;
12603;SDS011;6367;52.508;13.284;2023-07-31T06:57:52;3.30;;;3.00;;
12603;SDS011;6367;52.508;13.284;2023-07-31T07:00:19;3.07;;;2.77;;
12603;SDS011;6367;52.508;13.284;2023-07-31T07:02:46;5.10;;;3.20;;
12603;SDS011;6367;52.508;13.284;2023-07-31T07:05:13;3.30;;;3.00;;
12603;SDS011;6367;52.508;13.284;2023-07-31T07:07:38;3.97;;;3.00;;
12603;SDS011;6367;52.508;13.284;2023-07-31T07:10:04;5.00;;;3.17;;
12603;SDS011;6367;52.508;13.284;2023-07-31T07:12:31;5.80;;;2.80;;
12603;SDS011;6367;52.508;13.284;2023-07-31T07:14:57;5.53;;;2.50;;
12603;SDS011;6367;52.508;13.284;2023-07-31T07:17:24;3.43;;;2.50;;
12603;SDS011;6367;52.508;13.284;2023-07-31T07:19:50;4.50;;;2.87;;
12603;SDS011;6367;52.508;13.284;2023-07-31T07:22:15;4.27;;;2.87;;
12603;SDS011;6367;52.508;13.284;2023-07-31T07:24:41;3.80;;;2.80;;
12603;SDS011;6367;52.508;13.284;2023-07-31T07:27:07;4.63;;;2.57;;
12603;SDS011;6367;52.508;13.284;2023-07-31T07:29:34;4.60;;;3.03;;
12603;SDS011;6367;52.508;13.284;2023-07-31T07:32:00;3.77;;;2.80;;
12603;SDS011;6367;52.508;13.284;2023-07-31T07:34:26;3.00;;;2.67;;
12603;SDS011;6367;52.508;13.284;2023-07-31T07:36:52;3.77;;;3.17;;
12603;SDS011;6367;52.508;13.284;2023-07-31T07:39:18;5.60;;;2.73;;
12603;SDS011;6367;52.508;13.284;2023-07-31T07:41:44;4.27;;;3.03;;
12603;SDS011;6367;52.508;13.284;2023-07-31T07:44:09;3.90;;;3.40;;
12603;SDS011;6367;52.508;13.284;2023-07-31T07:46:35;5.87;;;2.80;;
12603;SDS011;6367;52.508;13.284;2023-07-31T07:49:01;4.33;;;3.10;;
12603;SDS011;6367;52.508;13.284;2023-07-31T07:51:26;5.53;;;3.20;;
12603;SDS011;6367;52.508;13.284;2023-07-31T07:53:52;4.33;;;3.50;;
12603;SDS011;6367;52.508;13.284;2023-07-31T07:56:18;3.93;;;2.80;;
12603;SDS011;6367;52.508;13.284;2023-07-31T07:58:43;2.90;;;2.47;;
12603;SDS011;6367;52.508;13.284;2023-07-31T08:01:09;3.97;;;2.97;;
12603;SDS011;6367;52.508;13.284;2023-07-31T08:03:35;3.20;;;2.90;;
12603;SDS011;6367;52.508;13.284;2023-07-31T08:06:00;4.00;;;2.60;;
12603;SDS011;6367;52.508;13.284;2023-07-31T08:08:27;3.67;;;2.73;;
12603;SDS011;6367;52.508;13.284;2023-07-31T08:10:53;4.13;;;3.10;;
12603;SDS011;6367;52.508;13.284;2023-07-31T08:13:19;3.27;;;2.97;;
12603;SDS011;6367;52.508;13.284;2023-07-31T08:15:44;2.80;;;2.60;;
12603;SDS011;6367;52.508;13.284;2023-07-31T08:18:10;3.30;;;2.87;;
12603;SDS011;6367;52.508;13.284;2023-07-31T08:20:36;2.77;;;2.57;;
12603;SDS011;6367;52.508;13.284;2023-07-31T08:23:02;3.10;;;2.80;;
12603;SDS011;6367;52.508;13.284;2023-07-31T08:25:28;2.73;;;2.47;;
12603;SDS011;6367;52.508;13.284;2023-07-31T08:27:54;3.03;;;2.80;;
12603;SDS011;6367;52.508;13.284;2023-07-31T08:30:20;3.40;;;2.17;;
12603;SDS011;6367;52.508;13.284;2023-07-31T08:32:46;5.30;;;3.07;;
12603;SDS011;6367;52.508;13.284;2023-07-31T08:35:12;2.53;;;2.27;;
12603;SDS011;6367;52.508;13.284;2023-07-31T08:37:37;3.60;;;2.90;;
12603;SDS011;6367;52.508;13.284;2023-07-31T08:40:04;3.90;;;2.50;;
12603;SDS011;6367;52.508;13.284;2023-07-31T08:42:30;2.93;;;2.63;;
12603;SDS011;6367;52.508;13.284;2023-07-31T08:44:57;2.60;;;2.40;;
12603;SDS011;6367;52.508;13.284;2023-07-31T08:47:25;2.97;;;2.77;;
12603;SDS011;6367;52.508;13.284;2023-07-31T08:49:51;3.10;;;2.80;;
12603;SDS011;6367;52.508;13.284;2023-07-31T08:52:17;2.60;;;2.33;;
12603;SDS011;6367;52.508;13.284;2023-07-31T08:54:43;2.37;;;2.17;;
12603;SDS011;6367;52.508;13.284;2023-07-31T08:57:09;2.03;;;1.93;;
12603;SDS011;6367;52.508;13.284;2023-07-31T08:59:36;2.10;;;2.00;;
12603;SDS011;6367;52.508;13.284;2023-07-31T09:02:06;2.87;;;2.57;;
12603;SDS011;6367;52.508;13.284;2023-07-31T09:04:33;5.73;;;2.30;;
12603;SDS011;6367;52.508;13.284;2023-07-31T09:07:00;2.43;;;2.07;;
12603;SDS011;6367;52.508;13.284;2023-07-31T09:09:28;2.80;;;2.60;;
12603;SDS011;6367;52.508;13.284;2023-07-31T09:11:54;3.20;;;2.73;;
12603;SDS011;6367;52.508;13.284;2023-07-31T09:14:20;2.40;;;2.20;;
12603;SDS011;6367;52.508;13.284;2023-07-31T09:16:53;3.07;;;2.13;;
12603;SDS011;6367;52.508;13.284;2023-07-31T09:19:29;2.13;;;1.77;;
12603;SDS011;6367;52.508;13.284;2023-07-31T09:21:59;2.30;;;2.10;;
12603;SDS011;6367;52.508;13.284;2023-07-31T09:24:26;1.83;;;1.40;;
12603;SDS011;6367;52.508;13.284;2023-07-31T09:26:53;2.93;;;2.10;;
12603;SDS011;6367;52.508;13.284;2023-07-31T09:29:20;2.17;;;1.73;;
12603;SDS011;6367;52.508;13.284;2023-07-31T09:31:46;1.60;;;1.50;;
12603;SDS011;6367;52.508;13.284;2023-07-31T09:34:11;1.70;;;1.50;;
12603;SDS011;6367;52.508;13.284;2023-07-31T09:39:11;2.37;;;1.87;;
12603;SDS011;6367;52.508;13.284;2023-07-31T09:41:39;2.73;;;2.20;;
12603;SDS011;6367;52.508;13.284;2023-07-31T09:44:05;4.10;;;2.33;;
12603;SDS011;6367;52.508;13.284;2023-07-31T09:46:32;2.10;;;1.90;;
12603;SDS011;6367;52.508;13.284;2023-07-31T09:49:07;2.13;;;1.53;;
12603;SDS011;6367;52.508;13.284;2023-07-31T09:51:34;1.90;;;1.50;;
12603;SDS011;6367;52.508;13.284;2023-07-31T09:56:36;1.93;;;1.70;;
12603;SDS011;6367;52.508;13.284;2023-07-31T09:59:06;3.17;;;1.40;;
12603;SDS011;6367;52.508;13.284;2023-07-31T10:01:32;1.67;;;1.57;;
12603;SDS011;6367;52.508;13.284;2023-07-31T10:03:59;1.67;;;1.50;;
12603;SDS011;6367;52.508;13.284;2023-07-31T10:06:26;2.73;;;2.23;;
12603;SDS011;6367;52.508;13.284;2023-07-31T10:08:51;2.30;;;2.10;;
12603;SDS011;6367;52.508;13.284;2023-07-31T10:11:19;1.73;;;1.63;;
12603;SDS011;6367;52.508;13.284;2023-07-31T10:13:47;2.40;;;2.20;;
12603;SDS011;6367;52.508;13.284;2023-07-31T10:16:13;4.00;;;2.00;;
12603;SDS011;6367;52.508;13.284;2023-07-31T10:18:41;3.17;;;2.00;;
12603;SDS011;6367;52.508;13.284;2023-07-31T10:21:08;2.77;;;2.53;;
12603;SDS011;6367;52.508;13.284;2023-07-31T10:23:35;9.40;;;3.57;;
12603;SDS011;6367;52.508;13.284;2023-07-31T10:26:01;3.93;;;3.07;;
12603;SDS011;6367;52.508;13.284;2023-07-31T10:28:28;3.43;;;2.90;;
12603;SDS011;6367;52.508;13.284;2023-07-31T10:30:57;3.67;;;3.33;;
12603;SDS011;6367;52.508;13.284;2023-07-31T10:33:22;3.53;;;3.23;;
12603;SDS011;6367;52.508;13.284;2023-07-31T10:35:48;5.10;;;4.33;;
12603;SDS011;6367;52.508;13.284;2023-07-31T10:38:14;4.77;;;3.53;;
12603;SDS011;6367;52.508;13.284;2023-07-31T10:40:40;5.27;;;3.70;;
12603;SDS011;6367;52.508;13.284;2023-07-31T10:43:06;5.40;;;3.93;;
12603;SDS011;6367;52.508;13.284;2023-07-31T10:45:37;4.90;;;3.60;;
12603;SDS011;6367;52.508;13.284;2023-07-31T10:48:06;4.23;;;3.40;;
12603;SDS011;6367;52.508;13.284;2023-07-31T10:50:54;4.50;;;3.77;;
12603;SDS011;6367;52.508;13.284;2023-07-31T10:53:24;4.00;;;3.70;;
12603;SDS011;6367;52.508;13.284;2023-07-31T10:55:53;4.73;;;3.77;;
12603;SDS011;6367;52.508;13.284;2023-07-31T10:58:26;4.03;;;3.53;;
12603;SDS011;6367;52.508;13.284;2023-07-31T11:00:55;5.13;;;3.87;;
12603;SDS011;6367;52.508;13.284;2023-07-31T11:03:24;3.97;;;3.67;;
12603;SDS011;6367;52.508;13.284;2023-07-31T11:06:00;6.60;;;4.13;;
12603;SDS011;6367;52.508;13.284;2023-07-31T11:08:35;3.83;;;2.93;;
12603;SDS011;6367;52.508;13.284;2023-07-31T11:11:07;5.63;;;3.87;;
12603;SDS011;6367;52.508;13.284;2023-07-31T11:16:06;7.17;;;3.30;;
12603;SDS011;6367;52.508;13.284;2023-07-31T11:18:32;5.27;;;4.00;;
12603;SDS011;6367;52.508;13.284;2023-07-31T11:20:57;3.33;;;2.90;;
12603;SDS011;6367;52.508;13.284;2023-07-31T11:23:23;5.30;;;3.87;;
12603;SDS011;6367;52.508;13.284;2023-07-31T11:25:49;4.17;;;3.77;;
12603;SDS011;6367;52.508;13.284;2023-07-31T11:28:16;4.70;;;3.90;;
12603;SDS011;6367;52.508;13.284;2023-07-31T11:30:43;3.97;;;3.00;;
12603;SDS011;6367;52.508;13.284;2023-07-31T11:33:11;3.50;;;3.20;;
12603;SDS011;6367;52.508;13.284;2023-07-31T11:35:45;6.53;;;4.20;;
12603;SDS011;6367;52.508;13.284;2023-07-31T11:38:12;4.30;;;3.90;;
12603;SDS011;6367;52.508;13.284;2023-07-31T11:40:47;4.67;;;3.97;;
12603;SDS011;6367;52.508;13.284;2023-07-31T11:43:13;10.60;;;3.13;;
12603;SDS011;6367;52.508;13.284;2023-07-31T11:45:42;4.57;;;3.20;;
12603;SDS011;6367;52.508;13.284;2023-07-31T11:48:18;3.97;;;3.10;;
12603;SDS011;6367;52.508;13.284;2023-07-31T11:50:52;4.80;;;3.40;;
12603;SDS011;6367;52.508;13.284;2023-07-31T11:53:29;3.23;;;2.93;;
12603;SDS011;6367;52.508;13.284;2023-07-31T11:56:00;3.43;;;3.10;;
12603;SDS011;6367;52.508;13.284;2023-07-31T11:58:29;4.60;;;3.53;;
12603;SDS011;6367;52.508;13.284;2023-07-31T12:00:56;3.70;;;3.13;;
12603;SDS011;6367;52.508;13.284;2023-07-31T12:03:23;3.73;;;3.40;;
12603;SDS011;6367;52.508;13.284;2023-07-31T12:05:49;4.40;;;3.43;;
12603;SDS011;6367;52.508;13.284;2023-07-31T12:08:15;3.10;;;2.80;;
12603;SDS011;6367;52.508;13.284;2023-07-31T12:10:41;3.37;;;2.70;;
12603;SDS011;6367;52.508;13.284;2023-07-31T12:13:11;3.70;;;2.93;;
12603;SDS011;6367;52.508;13.284;2023-07-31T12:15:44;3.70;;;3.40;;
12603;SDS011;6367;52.508;13.284;2023-07-31T12:18:11;3.50;;;3.20;;
12603;SDS011;6367;52.508;13.284;2023-07-31T12:20:49;3.47;;;3.17;;
12603;SDS011;6367;52.508;13.284;2023-07-31T12:23:20;4.40;;;3.33;;
12603;SDS011;6367;52.508;13.284;2023-07-31T12:28:49;2.70;;;2.50;;
12603;SDS011;6367;52.508;13.284;2023-07-31T12:31:19;3.60;;;3.30;;
12603;SDS011;6367;52.508;13.284;2023-07-31T12:33:48;3.93;;;3.23;;
12603;SDS011;6367;52.508;13.284;2023-07-31T12:36:19;6.47;;;4.00;;
12603;SDS011;6367;52.508;13.284;2023-07-31T12:38:47;3.20;;;2.83;;
12603;SDS011;6367;52.508;13.284;2023-07-31T12:41:13;3.60;;;2.90;;
12603;SDS011;6367;52.508;13.284;2023-07-31T12:43:39;4.67;;;3.00;;
12603;SDS011;6367;52.508;13.284;2023-07-31T12:46:06;3.10;;;2.60;;
12603;SDS011;6367;52.508;13.284;2023-07-31T12:48:33;4.20;;;3.10;;
12603;SDS011;6367;52.508;13.284;2023-07-31T12:50:59;4.20;;;3.10;;
12603;SDS011;6367;52.508;13.284;2023-07-31T12:53:25;3.77;;;3.43;;
12603;SDS011;6367;52.508;13.284;2023-07-31T12:55:51;3.30;;;3.00;;
12603;SDS011;6367;52.508;13.284;2023-07-31T12:58:16;3.83;;;3.17;;
12603;SDS011;6367;52.508;13.284;2023-07-31T13:00:42;4.00;;;2.30;;
12603;SDS011;6367;52.508;13.284;2023-07-31T13:03:08;2.30;;;2.10;;
12603;SDS011;6367;52.508;13.284;2023-07-31T13:05:33;3.40;;;2.30;;
12603;SDS011;6367;52.508;13.284;2023-07-31T13:08:00;2.30;;;2.10;;
12603;SDS011;6367;52.508;13.284;2023-07-31T13:10:26;4.23;;;2.17;;
12603;SDS011;6367;52.508;13.284;2023-07-31T13:12:53;2.70;;;2.50;;
12603;SDS011;6367;52.508;13.284;2023-07-31T13:15:19;2.73;;;2.53;;
12603;SDS011;6367;52.508;13.284;2023-07-31T13:17:45;9.33;;;2.50;;
12603;SDS011;6367;52.508;13.284;2023-07-31T13:20:11;3.27;;;2.30;;
12603;SDS011;6367;52.508;13.284;2023-07-31T13:22:37;3.33;;;2.37;;
12603;SDS011;6367;52.508;13.284;2023-07-31T13:25:03;3.30;;;2.30;;
12603;SDS011;6367;52.508;13.284;2023-07-31T13:27:29;3.13;;;2.30;;
12603;SDS011;6367;52.508;13.284;2023-07-31T13:29:54;2.60;;;2.30;;
12603;SDS011;6367;52.508;13.284;2023-07-31T13:32:20;5.43;;;2.97;;
12603;SDS011;6367;52.508;13.284;2023-07-31T13:34:47;2.80;;;2.60;;
12603;SDS011;6367;52.508;13.284;2023-07-31T13:37:13;4.30;;;2.87;;
12603;SDS011;6367;52.508;13.284;2023-07-31T13:39:41;4.57;;;3.43;;
12603;SDS011;6367;52.508;13.284;2023-07-31T13:42:08;4.03;;;3.57;;
12603;SDS011;6367;52.508;13.284;2023-07-31T13:44:40;3.90;;;3.17;;
12603;SDS011;6367;52.508;13.284;2023-07-31T13:47:06;3.03;;;2.83;;
12603;SDS011;6367;52.508;13.284;2023-07-31T13:49:33;4.30;;;3.50;;
12603;SDS011;6367;52.508;13.284;2023-07-31T13:52:01;6.83;;;3.70;;
12603;SDS011;6367;52.508;13.284;2023-07-31T13:54:27;4.20;;;2.93;;
12603;SDS011;6367;52.508;13.284;2023-07-31T13:56:53;3.87;;;3.57;;
12603;SDS011;6367;52.508;13.284;2023-07-31T13:59:18;5.07;;;3.40;;
12603;SDS011;6367;52.508;13.284;2023-07-31T14:01:45;6.87;;;3.87;;
12603;SDS011;6367;52.508;13.284;2023-07-31T14:04:11;4.00;;;3.30;;
12603;SDS011;6367;52.508;13.284;2023-07-31T14:06:37;4.67;;;3.70;;
12603;SDS011;6367;52.508;13.284;2023-07-31T14:09:03;5.43;;;3.67;;
12603;SDS011;6367;52.508;13.284;2023-07-31T14:11:30;3.50;;;3.20;;
12603;SDS011;6367;52.508;13.284;2023-07-31T14:13:56;4.50;;;3.40;;
12603;SDS011;6367;52.508;13.284;2023-07-31T14:16:22;4.20;;;3.60;;
12603;SDS011;6367;52.508;13.284;2023-07-31T14:18:48;4.40;;;3.43;;
12603;SDS011;6367;52.508;13.284;2023-07-31T14:21:14;3.90;;;3.50;;
12603;SDS011;6367;52.508;13.284;2023-07-31T14:23:40;5.00;;;3.70;;
12603;SDS011;6367;52.508;13.284;2023-07-31T14:26:06;3.70;;;3.40;;
12603;SDS011;6367;52.508;13.284;2023-07-31T14:28:32;4.00;;;3.60;;
12603;SDS011;6367;52.508;13.284;2023-07-31T14:30:58;5.37;;;3.67;;
12603;SDS011;6367;52.508;13.284;2023-07-31T14:33:23;5.37;;;3.70;;
12603;SDS011;6367;52.508;13.284;2023-07-31T14:35:49;6.00;;;3.50;;
12603;SDS011;6367;52.508;13.284;2023-07-31T14:38:15;5.13;;;3.27;;
12603;SDS011;6367;52.508;13.284;2023-07-31T14:40:41;4.87;;;3.73;;
12603;SDS011;6367;52.508;13.284;2023-07-31T14:43:10;5.30;;;3.20;;
12603;SDS011;6367;52.508;13.284;2023-07-31T14:45:35;3.57;;;3.20;;
12603;SDS011;6367;52.508;13.284;2023-07-31T14:48:01;4.57;;;3.50;;
12603;SDS011;6367;52.508;13.284;2023-07-31T14:50:27;3.70;;;2.80;;
12603;SDS011;6367;52.508;13.284;2023-07-31T14:52:53;3.60;;;3.00;;
12603;SDS011;6367;52.508;13.284;2023-07-31T14:55:19;3.30;;;3.00;;
12603;SDS011;6367;52.508;13.284;2023-07-31T14:57:45;3.00;;;2.50;;
12603;SDS011;6367;52.508;13.284;2023-07-31T15:00:11;3.67;;;3.30;;